Time;durP1;ratioP1;P1;durP2;ratioP2;P2;SDS_P1;SDS_P2;PMS_P1;PMS_P2;Temp;Humidity;BMP_temperature;BMP_pressure;BME280_temperature;BME280_humidity;BME280_pressure;Samples;Min_cycle;Max_cycle;Signal;HPM_P1;HPM_P2
2024/04/14 00:01:19;;;;;;;27.60;20.10;;;;;;;12.82;69.90;98903.65;436538;1248;98484;-41
2024/04/14 00:11:44;;;;;;;22.60;16.60;;;;;;;12.73;70.01;98892.43;436238;1253;110533;-41
2024/04/14 00:21:50;;;;;;;23.80;15.60;;;;;;;12.67;70.53;98875.35;436290;1253;99251;-40
2024/04/14 00:31:55;;;;;;;23.00;15.50;;;;;;;12.69;70.74;98861.32;436287;1253;112832;-41
2024/04/14 00:42:00;;;;;;;24.10;17.50;;;;;;;12.67;71.07;98851.41;436494;1253;108512;-41
2024/04/14 00:52:07;;;;;;;25.30;18.50;;;;;;;12.56;71.51;98833.08;436388;1248;98878;-41
2024/04/14 01:02:13;;;;;;;18.90;14.80;;;;;;;12.47;71.78;98828.02;436333;1261;108534;-41
2024/04/14 01:12:22;;;;;;;26.90;16.10;;;;;;;12.46;72.21;98820.42;436244;1253;99256;-42
2024/04/14 01:22:30;;;;;;;;;;;;;;;12.47;72.65;98812.15;436248;1253;112380;-40
2024/04/14 01:32:37;;;;;;;23.30;16.90;;;;;;;12.41;73.01;98794.23;435531;1253;108520;-41
2024/04/14 01:42:42;;;;;;;21.50;15.70;;;;;;;12.40;73.22;98782.76;435455;1254;99355;-42
2024/04/14 01:52:47;;;;;;;24.10;15.40;;;;;;;12.39;73.30;98775.33;435331;1253;107569;-41
2024/04/14 02:02:54;;;;;;;32.40;25.80;;;;;;;12.37;73.44;98768.05;435624;1253;99619;-41
2024/04/14 02:13:00;;;;;;;21.80;16.30;;;;;;;12.26;73.51;98754.02;435610;1252;113498;-41
2024/04/14 02:23:05;;;;;;;22.50;15.80;;;;;;;12.28;73.52;98749.91;435464;1263;108583;-41
2024/04/14 02:33:10;;;;;;;24.10;16.50;;;;;;;12.30;73.57;98737.18;435462;1254;99674;-41
2024/04/14 02:43:15;;;;;;;20.20;15.80;;;;;;;12.43;73.75;98733.85;435523;1254;108549;-42
2024/04/14 02:53:20;;;;;;;22.40;16.40;;;;;;;12.46;73.90;98717.41;435498;1250;98018;-41
2024/04/14 03:03:25;;;;;;;16.20;12.90;;;;;;;12.52;73.90;98697.15;435390;1263;112291;-40
2024/04/14 03:13:30;;;;;;;17.80;13.70;;;;;;;12.59;73.86;98684.39;435245;1249;108604;-40
2024/04/14 03:23:35;;;;;;;17.70;12.80;;;;;;;12.63;74.04;98668.77;435387;1251;99559;-40
2024/04/14 03:33:40;;;;;;;16.00;13.70;;;;;;;12.57;74.18;98655.92;435332;1263;108715;-41
2024/04/14 03:43:44;;;;;;;14.50;11.30;;;;;;;12.57;73.95;98656.23;435451;1254;98007;-40
2024/04/14 03:53:53;;;;;;;17.00;11.80;;;;;;;12.65;74.02;98657.41;435381;1262;112182;-41
2024/04/14 04:03:58;;;;;;;15.20;12.80;;;;;;;12.72;74.32;98650.66;435458;1263;108241;-41
2024/04/14 04:14:03;;;;;;;14.50;12.30;;;;;;;12.82;74.37;98629.81;435390;1253;98010;-40
2024/04/14 04:24:09;;;;;;;13.90;11.30;;;;;;;12.95;74.13;98611.49;435413;1251;108557;-41
2024/04/14 04:34:14;;;;;;;15.30;10.30;;;;;;;13.10;74.07;98611.92;435423;1263;99263;-41
2024/04/14 04:44:19;;;;;;;12.60;10.70;;;;;;;13.29;74.12;98600.86;435519;1253;111861;-40
2024/04/14 04:54:24;;;;;;;13.70;10.80;;;;;;;13.50;73.95;98599.79;435624;1257;108405;-41
2024/04/14 05:04:29;;;;;;;15.10;9.80;;;;;;;13.80;73.69;98596.05;435293;1255;99323;-42
2024/04/14 05:14:34;;;;;;;15.70;10.50;;;;;;;14.19;73.38;98573.23;435295;1263;109141;-42
2024/04/14 05:24:39;;;;;;;11.80;9.60;;;;;;;14.50;73.10;98576.77;435307;1251;99350;-40
2024/04/14 05:34:43;;;;;;;16.30;10.20;;;;;;;14.83;72.70;98580.44;435378;1254;110676;-40
2024/04/14 05:44:49;;;;;;;9.20;7.20;;;;;;;15.23;72.26;98582.70;434887;1254;419751;-39
2024/04/14 05:54:54;;;;;;;10.20;7.10;;;;;;;15.76;71.82;98583.72;435414;1255;99367;-41
2024/04/14 06:05:04;;;;;;;9.30;6.40;;;;;;;16.24;71.17;98575.98;435384;1254;107280;-41
2024/04/14 06:15:33;;;;;;;9.40;6.90;;;;;;;16.63;70.19;98564.63;435382;1254;99324;-42
2024/04/14 06:25:42;;;;;;;7.90;7.00;;;;;;;17.10;69.52;98563.21;435490;1253;112170;-40
2024/04/14 06:35:47;;;;;;;6.90;5.80;;;;;;;17.87;68.86;98560.24;435423;1253;108729;-40
2024/04/14 06:45:54;;;;;;;7.90;5.80;;;;;;;18.62;67.95;98560.96;435419;1254;99781;-42
2024/04/14 06:56:00;;;;;;;5.90;4.80;;;;;;;19.05;66.64;98558.20;435354;1253;108513;-40
2024/04/14 07:06:08;;;;;;;7.00;5.00;;;;;;;19.75;65.62;98547.56;435533;1254;99250;-41
2024/04/14 07:16:13;;;;;;;6.00;4.40;;;;;;;20.69;63.62;98539.80;435520;1253;111964;-41
2024/04/14 07:26:18;;;;;;;7.70;4.00;;;;;;;21.37;61.83;98535.41;435382;1251;108927;-43
2024/04/14 07:36:23;;;;;;;6.00;3.90;;;;;;;21.77;59.72;98537.77;435348;1251;98111;-40
2024/04/14 07:46:28;;;;;;;6.50;3.90;;;;;;;21.90;57.57;98535.00;435711;1253;109226;-41
2024/04/14 07:56:33;;;;;;;4.70;3.60;;;;;;;22.19;56.67;98529.05;435382;1250;99330;-40
2024/04/14 08:06:38;;;;;;;5.40;3.70;;;;;;;22.27;55.15;98519.55;435409;1253;112226;-39
2024/04/14 08:16:43;;;;;;;18.00;4.50;;;;;;;22.46;54.88;98523.79;435420;1250;108323;-40
2024/04/14 08:26:48;;;;;;;11.20;3.80;;;;;;;22.57;54.27;98537.25;435449;1249;99243;-40
2024/04/14 08:36:53;;;;;;;4.50;3.50;;;;;;;22.47;53.11;98545.44;435527;1250;108504;-40
2024/04/14 08:47:00;;;;;;;8.50;3.70;;;;;;;22.74;53.08;98539.55;435490;1250;99231;-40
2024/04/14 08:57:06;;;;;;;11.50;3.60;;;;;;;23.12;52.39;98539.54;435474;1254;112264;-40
2024/04/14 09:07:12;;;;;;;6.90;3.30;;;;;;;23.42;52.45;98533.38;435365;1253;108135;-41
2024/04/14 09:17:20;;;;;;;6.60;3.00;;;;;;;23.43;51.23;98539.75;435562;1250;99229;-39
2024/04/14 09:27:26;;;;;;;8.20;3.70;;;;;;;23.57;51.18;98538.64;435475;1254;108785;-39
2024/04/14 09:37:33;;;;;;;6.30;3.40;;;;;;;23.68;51.08;98530.34;435492;1249;98025;-40
2024/04/14 09:47:38;;;;;;;7.40;3.30;;;;;;;23.95;49.77;98527.52;435393;1250;112154;-40
2024/04/14 09:57:48;;;;;;;5.30;2.90;;;;;;;23.96;50.20;98517.92;435430;1253;108752;-40
2024/04/14 10:07:55;;;;;;;8.60;3.20;;;;;;;24.24;50.08;98508.56;435338;1250;101394;-39
2024/04/14 10:18:15;;;;;;;;;;;;;;;24.04;48.53;98518.89;435482;1253;108392;-39
2024/04/14 10:28:21;;;;;;;4.00;1.90;;;;;;;23.89;46.93;98516.41;435401;1250;98073;-39
2024/04/14 10:38:28;;;;;;;8.30;2.40;;;;;;;24.03;46.01;98511.65;435580;1249;111784;-40
2024/04/14 10:48:33;;;;;;;6.30;2.20;;;;;;;24.06;45.42;98514.88;435341;1249;107177;-40
2024/04/14 10:58:38;;;;;;;11.50;2.40;;;;;;;23.87;44.82;98509.58;435519;1250;98637;-39
2024/04/14 11:08:44;;;;;;;2.90;2.20;;;;;;;23.39;44.57;98507.50;435502;1253;109160;-40
2024/04/14 11:18:49;;;;;;;6.50;3.10;;;;;;;23.06;45.59;98509.98;435361;1251;99253;-40
2024/04/14 11:28:54;;;;;;;11.60;2.90;;;;;;;22.76;46.52;98517.48;435443;1252;112310;-41
2024/04/14 11:39:03;;;;;;;5.70;2.70;;;;;;;22.94;47.04;98506.34;435522;1250;108681;-41
2024/04/14 11:49:08;;;;;;;3.20;2.50;;;;;;;22.84;47.67;98496.70;435420;1250;99246;-42
2024/04/14 11:59:13;;;;;;;5.60;2.20;;;;;;;23.12;47.12;98484.73;435550;1250;109330;-40
2024/04/14 12:09:18;;;;;;;6.90;2.50;;;;;;;22.96;46.75;98476.87;435514;1251;98072;-41
2024/04/14 12:19:27;;;;;;;4.90;3.10;;;;;;;23.31;45.90;98463.52;435389;1251;111911;-41
2024/04/14 12:29:35;;;;;;;7.00;2.70;;;;;;;23.23;46.87;98458.61;435512;1253;109156;-41
2024/04/14 12:39:41;;;;;;;5.20;2.40;;;;;;;23.17;46.88;98455.72;435538;1250;99683;-42
2024/04/14 12:49:46;;;;;;;5.80;2.90;;;;;;;23.03;46.69;98462.33;435584;1252;108482;-41
2024/04/14 12:59:51;;;;;;;9.10;2.50;;;;;;;22.76;46.68;98463.42;435417;1249;99272;-40
2024/04/14 13:09:56;;;;;;;11.80;3.30;;;;;;;22.42;47.00;98462.48;435504;1252;111879;-40
2024/04/14 13:20:01;;;;;;;6.30;2.80;;;;;;;22.12;47.60;98453.25;435427;1249;108231;-39
2024/04/14 13:30:08;;;;;;;24.00;4.10;;;;;;;22.39;47.80;98443.60;435535;1250;98009;-40
2024/04/14 13:40:14;;;;;;;13.10;3.40;;;;;;;22.35;47.39;98428.50;435455;1250;108370;-40
2024/04/14 13:50:20;;;;;;;7.00;3.10;;;;;;;22.10;48.17;98420.80;435363;1253;99368;-41
2024/04/14 14:00:26;;;;;;;6.20;2.50;;;;;;;21.92;48.54;98427.20;435447;1250;111857;-41
2024/04/14 14:10:31;;;;;;;7.00;3.60;;;;;;;21.79;49.19;98435.65;435445;1252;108877;-41
2024/04/14 14:20:37;;;;;;;6.00;3.30;;;;;;;21.46;49.14;98436.77;435644;1250;99249;-41
2024/04/14 14:30:42;;;;;;;7.10;3.20;;;;;;;21.03;49.80;98448.27;435518;1250;108163;-41
2024/04/14 14:52:50;;;;;;;6.70;3.30;;;;;;;20.47;50.25;98465.95;435426;1251;112592;-41
2024/04/14 15:02:56;;;;;;;4.00;3.30;;;;;;;20.12;50.76;98465.14;435384;1249;108269;-41
2024/04/14 15:13:05;;;;;;;9.30;3.40;;;;;;;19.78;51.29;98473.91;435444;1250;99764;-41
2024/04/14 15:23:10;;;;;;;4.90;3.50;;;;;;;19.55;51.68;98472.72;435343;1253;108657;-41
2024/04/14 15:33:15;;;;;;;5.90;3.40;;;;;;;19.41;51.71;98477.78;435416;1251;98120;-42
2024/04/14 15:43:20;;;;;;;8.20;2.90;;;;;;;19.23;51.77;98478.20;435425;1251;113167;-41
2024/04/14 15:53:25;;;;;;;6.40;3.20;;;;;;;19.09;52.08;98467.20;435278;1253;108361;-41
2024/04/14 16:03:31;;;;;;;3.80;2.70;;;;;;;18.99;52.38;98475.63;435405;1253;99884;-41
2024/04/14 16:13:36;;;;;;;4.30;2.90;;;;;;;18.86;52.84;98472.79;435373;1252;107722;-44
2024/04/14 16:23:43;;;;;;;10.00;5.00;;;;;;;18.66;53.46;98473.67;435446;1252;99184;-41
2024/04/14 16:33:48;;;;;;;;;;;;;;;18.39;54.70;98482.63;436050;1253;112149;-41
2024/04/14 16:43:53;;;;;;;10.30;4.50;;;;;;;18.26;55.29;98470.07;435356;1250;108214;-40
2024/04/14 16:53:58;;;;;;;6.40;5.40;;;;;;;18.01;56.24;98476.67;435564;1250;99857;-41
2024/04/14 17:04:03;;;;;;;6.40;4.40;;;;;;;17.80;56.88;98471.89;435446;1253;109283;-40
2024/04/14 17:14:09;;;;;;;6.90;4.60;;;;;;;17.64;57.43;98472.05;435413;1253;99278;-41
2024/04/14 17:24:15;;;;;;;5.50;4.10;;;;;;;17.41;58.06;98462.85;435717;1251;112284;-41
2024/04/14 17:34:24;;;;;;;14.80;5.00;;;;;;;17.18;58.87;98458.52;435854;1249;108600;-41
2024/04/14 17:44:30;;;;;;;6.50;4.40;;;;;;;16.88;59.12;98457.33;435037;1253;582564;-42
2024/04/14 17:54:36;;;;;;;9.40;4.50;;;;;;;16.54;59.62;98467.05;435491;1250;108300;-42
2024/04/14 18:04:41;;;;;;;7.30;5.30;;;;;;;16.15;60.06;98489.59;436488;1250;98815;-41
2024/04/14 18:14:46;;;;;;;13.40;6.90;;;;;;;15.90;60.48;98494.32;435426;1253;111785;-40
2024/04/14 18:24:51;;;;;;;10.80;5.30;;;;;;;15.78;60.89;98518.67;435656;1253;107593;-41
2024/04/14 18:34:57;;;;;;;9.10;4.20;;;;;;;15.63;60.82;98522.56;435403;1252;99214;-41
2024/04/14 18:45:02;;;;;;;13.60;4.60;;;;;;;15.50;60.00;98546.66;435484;1253;108430;-40
2024/04/14 18:55:08;;;;;;;11.80;4.00;;;;;;;15.32;59.46;98549.91;435515;1251;99265;-40
2024/04/14 19:05:14;;;;;;;5.30;2.80;;;;;;;15.08;59.05;98568.95;435361;1250;112277;-42
2024/04/14 19:15:20;;;;;;;15.40;4.00;;;;;;;14.86;58.90;98584.66;435344;1253;108565;-40
2024/04/14 19:25:25;;;;;;;10.20;2.40;;;;;;;14.68;58.63;98583.70;435260;1253;99278;-43
2024/04/14 19:35:31;;;;;;;5.60;2.90;;;;;;;14.49;58.38;98598.48;435401;1250;109665;-40
2024/04/14 19:45:51;;;;;;;11.20;2.40;;;;;;;14.34;58.54;98579.34;435418;1252;98076;-40
2024/04/14 19:55:56;;;;;;;9.60;2.90;;;;;;;13.99;58.93;98574.86;435298;1252;112138;-41
2024/04/14 20:06:00;;;;;;;7.70;3.70;;;;;;;13.57;59.08;98587.42;435351;1253;108443;-40
2024/04/14 20:16:07;;;;;;;5.00;2.90;;;;;;;13.42;59.74;98600.33;435427;1251;99224;-41
2024/04/14 20:26:12;;;;;;;11.50;3.00;;;;;;;13.35;60.05;98611.20;435456;1251;107581;-41
2024/04/14 20:36:17;;;;;;;9.40;4.20;;;;;;;13.31;60.15;98602.66;435411;1250;99221;-41
2024/04/14 20:46:22;;;;;;;8.70;4.30;;;;;;;13.18;60.18;98588.04;435244;1254;113596;-42
2024/04/14 20:56:28;;;;;;;8.00;3.90;;;;;;;12.99;60.28;98599.79;435313;1255;108073;-41
2024/04/14 21:06:38;;;;;;;8.40;3.40;;;;;;;12.64;60.92;98595.75;435300;1251;99120;-41
2024/04/14 21:16:45;;;;;;;6.70;3.00;;;;;;;12.49;61.21;98610.33;435386;1253;107619;-41
2024/04/14 21:26:49;;;;;;;9.30;2.90;;;;;;;12.42;61.75;98601.48;435432;1253;99253;-40
2024/04/14 21:36:55;;;;;;;5.90;2.80;;;;;;;12.41;61.64;98602.73;435457;1255;113155;-41
2024/04/14 21:46:59;;;;;;;5.70;2.60;;;;;;;12.48;61.68;98595.52;435283;1253;108052;-41
2024/04/14 21:57:05;;;;;;;9.40;2.60;;;;;;;12.66;61.46;98540.75;435488;1257;99758;-41
2024/04/14 22:07:13;;;;;;;10.00;2.80;;;;;;;12.66;61.64;98547.12;435585;1253;108364;-41
2024/04/14 22:17:18;;;;;;;11.30;5.10;;;;;;;12.57;61.78;98553.80;435376;1254;99234;-41
2024/04/14 22:27:23;;;;;;;11.70;4.60;;;;;;;12.46;62.38;98552.20;435553;1255;112297;-41
2024/04/14 22:37:28;;;;;;;11.00;4.80;;;;;;;12.48;62.76;98537.42;435345;1254;108456;-41
2024/04/14 22:47:33;;;;;;;8.30;4.20;;;;;;;12.60;63.28;98518.36;435378;1254;99241;-41
2024/04/14 22:57:38;;;;;;;9.20;3.60;;;;;;;12.58;63.61;98513.50;435521;1253;108526;-41
2024/04/14 23:07:43;;;;;;;8.30;3.30;;;;;;;12.52;63.57;98513.09;435448;1253;99245;-41
2024/04/14 23:17:50;;;;;;;6.10;3.00;;;;;;;12.43;63.37;98506.75;435426;1263;111335;-40
2024/04/14 23:27:55;;;;;;;6.30;2.50;;;;;;;12.34;63.26;98496.04;435321;1263;108731;-39
2024/04/14 23:38:04;;;;;;;11.50;2.70;;;;;;;12.15;63.06;98501.95;435354;1253;99240;-40
2024/04/14 23:48:09;;;;;;;5.40;3.20;;;;;;;11.99;63.32;98494.38;435433;1253;109123;-41
2024/04/14 23:58:17;;;;;;;11.40;5.20;;;;;;;11.97;63.87;98473.55;435276;1253;98850;-40
